sensor_id;sensor_type;location;lat;lon;timestamp;P1;durP1;ratioP1;P2;durP2;ratioP2
24381;SDS011;12502;50.678;7.172;2022-07-30T00:03:56;5.53;;;3.90;;
24381;SDS011;12502;50.678;7.172;2022-07-30T00:08:57;8.23;;;4.28;;
24381;SDS011;12502;50.678;7.172;2022-07-30T00:13:59;7.90;;;4.50;;
24381;SDS011;12502;50.678;7.172;2022-07-30T00:19:02;6.63;;;4.30;;
24381;SDS011;12502;50.678;7.172;2022-07-30T00:24:06;8.05;;;5.53;;
24381;SDS011;12502;50.678;7.172;2022-07-30T00:29:08;6.17;;;4.87;;
24381;SDS011;12502;50.678;7.172;2022-07-30T00:34:11;8.82;;;4.85;;
24381;SDS011;12502;50.678;7.172;2022-07-30T00:39:13;6.32;;;4.60;;
24381;SDS011;12502;50.678;7.172;2022-07-30T00:44:15;8.50;;;5.40;;
24381;SDS011;12502;50.678;7.172;2022-07-30T00:49:17;8.15;;;5.13;;
24381;SDS011;12502;50.678;7.172;2022-07-30T00:54:19;7.70;;;5.57;;
24381;SDS011;12502;50.678;7.172;2022-07-30T00:59:21;6.47;;;4.90;;
24381;SDS011;12502;50.678;7.172;2022-07-30T01:04:24;6.13;;;4.65;;
24381;SDS011;12502;50.678;7.172;2022-07-30T01:09:25;10.02;;;5.30;;
24381;SDS011;12502;50.678;7.172;2022-07-30T01:14:27;10.27;;;5.22;;
24381;SDS011;12502;50.678;7.172;2022-07-30T01:19:30;6.65;;;5.03;;
24381;SDS011;12502;50.678;7.172;2022-07-30T01:30:02;7.30;;;4.97;;
24381;SDS011;12502;50.678;7.172;2022-07-30T01:35:06;7.38;;;5.05;;
24381;SDS011;12502;50.678;7.172;2022-07-30T01:40:11;6.82;;;4.90;;
24381;SDS011;12502;50.678;7.172;2022-07-30T01:45:14;7.90;;;4.97;;
24381;SDS011;12502;50.678;7.172;2022-07-30T01:50:17;7.50;;;5.80;;
24381;SDS011;12502;50.678;7.172;2022-07-30T01:55:39;6.40;;;5.07;;
24381;SDS011;12502;50.678;7.172;2022-07-30T02:00:44;7.32;;;5.13;;
24381;SDS011;12502;50.678;7.172;2022-07-30T02:05:59;7.72;;;5.32;;
24381;SDS011;12502;50.678;7.172;2022-07-30T02:11:09;7.03;;;5.40;;
24381;SDS011;12502;50.678;7.172;2022-07-30T02:16:20;8.18;;;5.40;;
24381;SDS011;12502;50.678;7.172;2022-07-30T02:21:32;7.40;;;5.30;;
24381;SDS011;12502;50.678;7.172;2022-07-30T02:26:38;9.75;;;5.47;;
24381;SDS011;12502;50.678;7.172;2022-07-30T02:31:41;7.25;;;5.45;;
24381;SDS011;12502;50.678;7.172;2022-07-30T02:36:44;7.53;;;5.35;;
24381;SDS011;12502;50.678;7.172;2022-07-30T02:41:47;6.65;;;5.00;;
24381;SDS011;12502;50.678;7.172;2022-07-30T02:46:50;9.20;;;5.80;;
24381;SDS011;12502;50.678;7.172;2022-07-30T02:51:53;8.50;;;5.32;;
24381;SDS011;12502;50.678;7.172;2022-07-30T02:56:57;8.40;;;5.50;;
24381;SDS011;12502;50.678;7.172;2022-07-30T03:02:02;7.15;;;5.00;;
24381;SDS011;12502;50.678;7.172;2022-07-30T03:07:05;7.18;;;5.40;;
24381;SDS011;12502;50.678;7.172;2022-07-30T03:12:09;8.15;;;5.47;;
24381;SDS011;12502;50.678;7.172;2022-07-30T03:17:14;8.27;;;5.75;;
24381;SDS011;12502;50.678;7.172;2022-07-30T03:22:17;8.65;;;6.40;;
24381;SDS011;12502;50.678;7.172;2022-07-30T03:27:20;6.82;;;5.72;;
24381;SDS011;12502;50.678;7.172;2022-07-30T03:32:23;9.80;;;6.10;;
24381;SDS011;12502;50.678;7.172;2022-07-30T03:37:26;7.68;;;6.10;;
24381;SDS011;12502;50.678;7.172;2022-07-30T03:42:30;9.45;;;6.85;;
24381;SDS011;12502;50.678;7.172;2022-07-30T03:47:35;7.23;;;6.00;;
24381;SDS011;12502;50.678;7.172;2022-07-30T03:52:39;9.32;;;5.88;;
24381;SDS011;12502;50.678;7.172;2022-07-30T03:57:42;10.30;;;5.73;;
24381;SDS011;12502;50.678;7.172;2022-07-30T04:02:44;7.28;;;5.63;;
24381;SDS011;12502;50.678;7.172;2022-07-30T04:07:47;7.85;;;5.85;;
24381;SDS011;12502;50.678;7.172;2022-07-30T04:12:49;10.65;;;6.07;;
24381;SDS011;12502;50.678;7.172;2022-07-30T04:17:52;7.00;;;6.10;;
24381;SDS011;12502;50.678;7.172;2022-07-30T04:22:58;8.68;;;5.90;;
24381;SDS011;12502;50.678;7.172;2022-07-30T04:28:01;8.85;;;5.90;;
24381;SDS011;12502;50.678;7.172;2022-07-30T04:33:06;11.27;;;6.85;;
24381;SDS011;12502;50.678;7.172;2022-07-30T04:38:08;8.63;;;6.32;;
24381;SDS011;12502;50.678;7.172;2022-07-30T04:43:10;7.95;;;6.60;;
24381;SDS011;12502;50.678;7.172;2022-07-30T04:48:12;8.63;;;5.97;;
24381;SDS011;12502;50.678;7.172;2022-07-30T04:53:14;9.10;;;6.38;;
24381;SDS011;12502;50.678;7.172;2022-07-30T04:58:17;9.00;;;6.50;;
24381;SDS011;12502;50.678;7.172;2022-07-30T05:03:20;6.57;;;5.90;;
24381;SDS011;12502;50.678;7.172;2022-07-30T05:08:25;8.23;;;5.97;;
24381;SDS011;12502;50.678;7.172;2022-07-30T05:13:29;9.38;;;5.70;;
24381;SDS011;12502;50.678;7.172;2022-07-30T05:18:38;10.23;;;6.22;;
24381;SDS011;12502;50.678;7.172;2022-07-30T05:23:40;11.20;;;6.60;;
24381;SDS011;12502;50.678;7.172;2022-07-30T05:28:50;8.63;;;5.82;;
24381;SDS011;12502;50.678;7.172;2022-07-30T05:33:57;9.10;;;5.97;;
24381;SDS011;12502;50.678;7.172;2022-07-30T05:39:03;14.32;;;6.40;;
24381;SDS011;12502;50.678;7.172;2022-07-30T05:44:05;14.60;;;6.55;;
24381;SDS011;12502;50.678;7.172;2022-07-30T05:49:07;8.18;;;6.53;;
24381;SDS011;12502;50.678;7.172;2022-07-30T05:54:09;14.55;;;7.40;;
24381;SDS011;12502;50.678;7.172;2022-07-30T05:59:11;11.40;;;7.00;;
24381;SDS011;12502;50.678;7.172;2022-07-30T06:04:13;15.55;;;8.45;;
24381;SDS011;12502;50.678;7.172;2022-07-30T06:09:14;14.05;;;9.60;;
24381;SDS011;12502;50.678;7.172;2022-07-30T06:14:22;12.70;;;9.70;;
24381;SDS011;12502;50.678;7.172;2022-07-30T06:19:24;13.50;;;9.55;;
24381;SDS011;12502;50.678;7.172;2022-07-30T06:24:26;12.32;;;9.57;;
24381;SDS011;12502;50.678;7.172;2022-07-30T06:29:29;16.58;;;10.30;;
24381;SDS011;12502;50.678;7.172;2022-07-30T06:34:31;16.75;;;10.75;;
24381;SDS011;12502;50.678;7.172;2022-07-30T06:39:32;13.73;;;11.20;;
24381;SDS011;12502;50.678;7.172;2022-07-30T06:44:54;19.73;;;11.13;;
24381;SDS011;12502;50.678;7.172;2022-07-30T06:49:56;18.40;;;9.70;;
24381;SDS011;12502;50.678;7.172;2022-07-30T06:54:58;21.02;;;11.10;;
24381;SDS011;12502;50.678;7.172;2022-07-30T07:00:00;19.38;;;11.82;;
24381;SDS011;12502;50.678;7.172;2022-07-30T07:05:01;15.23;;;11.48;;
24381;SDS011;12502;50.678;7.172;2022-07-30T07:10:03;19.73;;;12.07;;
24381;SDS011;12502;50.678;7.172;2022-07-30T07:15:06;15.45;;;11.35;;
24381;SDS011;12502;50.678;7.172;2022-07-30T07:20:08;17.98;;;11.80;;
24381;SDS011;12502;50.678;7.172;2022-07-30T07:25:10;16.60;;;10.70;;
24381;SDS011;12502;50.678;7.172;2022-07-30T07:30:12;16.38;;;11.25;;
24381;SDS011;12502;50.678;7.172;2022-07-30T07:35:14;15.95;;;10.00;;
24381;SDS011;12502;50.678;7.172;2022-07-30T07:40:17;19.55;;;10.60;;
24381;SDS011;12502;50.678;7.172;2022-07-30T07:45:19;14.52;;;11.23;;
24381;SDS011;12502;50.678;7.172;2022-07-30T07:50:20;16.60;;;10.77;;
24381;SDS011;12502;50.678;7.172;2022-07-30T07:55:23;19.52;;;10.23;;
24381;SDS011;12502;50.678;7.172;2022-07-30T08:00:25;13.85;;;8.88;;
24381;SDS011;12502;50.678;7.172;2022-07-30T08:05:27;16.38;;;9.10;;
24381;SDS011;12502;50.678;7.172;2022-07-30T08:10:49;13.65;;;8.77;;
24381;SDS011;12502;50.678;7.172;2022-07-30T08:15:51;14.38;;;8.68;;
24381;SDS011;12502;50.678;7.172;2022-07-30T08:20:53;12.65;;;8.77;;
24381;SDS011;12502;50.678;7.172;2022-07-30T08:25:56;20.23;;;8.88;;
24381;SDS011;12502;50.678;7.172;2022-07-30T08:30:58;14.50;;;7.70;;
24381;SDS011;12502;50.678;7.172;2022-07-30T08:36:02;15.95;;;8.82;;
24381;SDS011;12502;50.678;7.172;2022-07-30T08:41:10;13.40;;;8.60;;
24381;SDS011;12502;50.678;7.172;2022-07-30T08:46:12;15.40;;;8.57;;
24381;SDS011;12502;50.678;7.172;2022-07-30T08:51:18;17.95;;;9.50;;
24381;SDS011;12502;50.678;7.172;2022-07-30T08:56:20;17.52;;;9.18;;
24381;SDS011;12502;50.678;7.172;2022-07-30T09:01:22;17.63;;;8.10;;
24381;SDS011;12502;50.678;7.172;2022-07-30T09:06:24;13.77;;;8.10;;
24381;SDS011;12502;50.678;7.172;2022-07-30T09:11:26;16.23;;;9.75;;
24381;SDS011;12502;50.678;7.172;2022-07-30T09:16:28;15.82;;;9.20;;
24381;SDS011;12502;50.678;7.172;2022-07-30T09:21:30;15.02;;;8.27;;
24381;SDS011;12502;50.678;7.172;2022-07-30T09:26:32;14.20;;;7.32;;
24381;SDS011;12502;50.678;7.172;2022-07-30T09:42:19;19.35;;;7.20;;
24381;SDS011;12502;50.678;7.172;2022-07-30T09:47:32;12.48;;;7.70;;
24381;SDS011;12502;50.678;7.172;2022-07-30T09:52:36;19.92;;;7.63;;
24381;SDS011;12502;50.678;7.172;2022-07-30T09:57:56;17.60;;;6.30;;
24381;SDS011;12502;50.678;7.172;2022-07-30T10:03:17;14.50;;;6.72;;
24381;SDS011;12502;50.678;7.172;2022-07-30T10:13:55;13.23;;;6.50;;
24381;SDS011;12502;50.678;7.172;2022-07-30T10:18:59;12.73;;;6.32;;
24381;SDS011;12502;50.678;7.172;2022-07-30T10:24:01;11.32;;;5.72;;
24381;SDS011;12502;50.678;7.172;2022-07-30T10:29:07;14.07;;;5.95;;
24381;SDS011;12502;50.678;7.172;2022-07-30T10:34:13;9.55;;;5.00;;
24381;SDS011;12502;50.678;7.172;2022-07-30T10:39:25;11.10;;;4.95;;
24381;SDS011;12502;50.678;7.172;2022-07-30T10:50:05;11.00;;;5.82;;
24381;SDS011;12502;50.678;7.172;2022-07-30T10:55:12;10.30;;;4.68;;
24381;SDS011;12502;50.678;7.172;2022-07-30T11:10:40;11.27;;;5.22;;
24381;SDS011;12502;50.678;7.172;2022-07-30T11:21:13;6.18;;;2.78;;
24381;SDS011;12502;50.678;7.172;2022-07-30T11:31:41;5.07;;;3.35;;
24381;SDS011;12502;50.678;7.172;2022-07-30T11:47:31;4.97;;;3.20;;
24381;SDS011;12502;50.678;7.172;2022-07-30T11:52:33;8.35;;;3.95;;
24381;SDS011;12502;50.678;7.172;2022-07-30T11:57:39;10.70;;;4.00;;
24381;SDS011;12502;50.678;7.172;2022-07-30T12:02:41;7.03;;;3.92;;
24381;SDS011;12502;50.678;7.172;2022-07-30T12:07:43;7.30;;;3.80;;
24381;SDS011;12502;50.678;7.172;2022-07-30T12:12:45;7.35;;;3.53;;
24381;SDS011;12502;50.678;7.172;2022-07-30T12:17:47;5.25;;;3.72;;
24381;SDS011;12502;50.678;7.172;2022-07-30T12:23:08;6.85;;;4.53;;
24381;SDS011;12502;50.678;7.172;2022-07-30T12:28:17;10.32;;;4.50;;
24381;SDS011;12502;50.678;7.172;2022-07-30T12:33:21;6.97;;;4.00;;
24381;SDS011;12502;50.678;7.172;2022-07-30T12:38:24;9.45;;;4.15;;
24381;SDS011;12502;50.678;7.172;2022-07-30T12:54:22;9.43;;;4.25;;
24381;SDS011;12502;50.678;7.172;2022-07-30T12:59:25;7.78;;;4.65;;
24381;SDS011;12502;50.678;7.172;2022-07-30T13:04:28;10.32;;;4.03;;
24381;SDS011;12502;50.678;7.172;2022-07-30T13:09:31;7.23;;;4.37;;
24381;SDS011;12502;50.678;7.172;2022-07-30T13:14:33;7.22;;;3.70;;
24381;SDS011;12502;50.678;7.172;2022-07-30T13:19:36;5.30;;;3.33;;
24381;SDS011;12502;50.678;7.172;2022-07-30T13:24:37;3.75;;;2.97;;
24381;SDS011;12502;50.678;7.172;2022-07-30T13:29:41;6.53;;;3.15;;
24381;SDS011;12502;50.678;7.172;2022-07-30T13:34:42;5.20;;;3.20;;
24381;SDS011;12502;50.678;7.172;2022-07-30T13:39:45;4.97;;;3.35;;
24381;SDS011;12502;50.678;7.172;2022-07-30T13:44:47;6.18;;;2.72;;
24381;SDS011;12502;50.678;7.172;2022-07-30T13:49:48;5.03;;;2.95;;
24381;SDS011;12502;50.678;7.172;2022-07-30T13:54:51;7.80;;;3.60;;
24381;SDS011;12502;50.678;7.172;2022-07-30T13:59:53;7.03;;;3.72;;
24381;SDS011;12502;50.678;7.172;2022-07-30T14:04:55;4.82;;;3.55;;
24381;SDS011;12502;50.678;7.172;2022-07-30T14:09:57;7.75;;;3.58;;
24381;SDS011;12502;50.678;7.172;2022-07-30T14:14:59;6.82;;;3.63;;
24381;SDS011;12502;50.678;7.172;2022-07-30T14:20:01;5.32;;;3.47;;
24381;SDS011;12502;50.678;7.172;2022-07-30T14:25:03;3.38;;;2.97;;
24381;SDS011;12502;50.678;7.172;2022-07-30T14:30:06;6.32;;;2.83;;
24381;SDS011;12502;50.678;7.172;2022-07-30T14:40:11;5.15;;;2.90;;
24381;SDS011;12502;50.678;7.172;2022-07-30T14:45:13;5.35;;;2.75;;
24381;SDS011;12502;50.678;7.172;2022-07-30T14:50:15;4.88;;;2.58;;
24381;SDS011;12502;50.678;7.172;2022-07-30T14:55:17;3.88;;;2.55;;
24381;SDS011;12502;50.678;7.172;2022-07-30T15:00:19;4.47;;;2.22;;
24381;SDS011;12502;50.678;7.172;2022-07-30T15:05:24;5.85;;;2.20;;
24381;SDS011;12502;50.678;7.172;2022-07-30T15:10:26;4.95;;;2.53;;
24381;SDS011;12502;50.678;7.172;2022-07-30T15:15:28;3.55;;;2.53;;
24381;SDS011;12502;50.678;7.172;2022-07-30T15:20:37;5.03;;;3.03;;
24381;SDS011;12502;50.678;7.172;2022-07-30T15:25:39;3.78;;;2.70;;
24381;SDS011;12502;50.678;7.172;2022-07-30T15:30:42;4.00;;;2.53;;
24381;SDS011;12502;50.678;7.172;2022-07-30T15:35:44;2.88;;;2.25;;
24381;SDS011;12502;50.678;7.172;2022-07-30T15:40:45;5.57;;;2.72;;
24381;SDS011;12502;50.678;7.172;2022-07-30T15:45:47;3.33;;;2.00;;
24381;SDS011;12502;50.678;7.172;2022-07-30T15:51:05;5.18;;;1.92;;
24381;SDS011;12502;50.678;7.172;2022-07-30T15:56:08;2.88;;;1.60;;
24381;SDS011;12502;50.678;7.172;2022-07-30T16:01:10;4.30;;;1.85;;
24381;SDS011;12502;50.678;7.172;2022-07-30T16:06:13;4.07;;;1.80;;
24381;SDS011;12502;50.678;7.172;2022-07-30T16:11:14;2.15;;;1.58;;
24381;SDS011;12502;50.678;7.172;2022-07-30T16:16:16;3.38;;;1.90;;
24381;SDS011;12502;50.678;7.172;2022-07-30T16:21:18;3.45;;;2.03;;
24381;SDS011;12502;50.678;7.172;2022-07-30T16:26:21;2.75;;;1.60;;
24381;SDS011;12502;50.678;7.172;2022-07-30T16:31:23;1.83;;;1.45;;
24381;SDS011;12502;50.678;7.172;2022-07-30T16:36:25;2.53;;;1.73;;
24381;SDS011;12502;50.678;7.172;2022-07-30T16:41:27;2.00;;;1.30;;
24381;SDS011;12502;50.678;7.172;2022-07-30T16:46:29;5.90;;;1.98;;
24381;SDS011;12502;50.678;7.172;2022-07-30T16:51:30;1.90;;;1.65;;
24381;SDS011;12502;50.678;7.172;2022-07-30T16:56:32;1.67;;;1.48;;
24381;SDS011;12502;50.678;7.172;2022-07-30T17:01:34;5.05;;;1.85;;
24381;SDS011;12502;50.678;7.172;2022-07-30T17:06:36;3.63;;;1.88;;
24381;SDS011;12502;50.678;7.172;2022-07-30T17:11:40;1.90;;;1.50;;
24381;SDS011;12502;50.678;7.172;2022-07-30T17:16:52;2.05;;;1.90;;
24381;SDS011;12502;50.678;7.172;2022-07-30T17:21:54;3.97;;;1.60;;
24381;SDS011;12502;50.678;7.172;2022-07-30T17:26:56;4.30;;;2.00;;
24381;SDS011;12502;50.678;7.172;2022-07-30T17:31:58;3.83;;;1.60;;
24381;SDS011;12502;50.678;7.172;2022-07-30T17:37:01;4.38;;;1.73;;
24381;SDS011;12502;50.678;7.172;2022-07-30T17:42:02;4.90;;;2.15;;
24381;SDS011;12502;50.678;7.172;2022-07-30T17:47:04;5.63;;;2.00;;
24381;SDS011;12502;50.678;7.172;2022-07-30T17:52:12;5.32;;;1.70;;
24381;SDS011;12502;50.678;7.172;2022-07-30T17:57:14;5.05;;;1.80;;
24381;SDS011;12502;50.678;7.172;2022-07-30T18:02:16;5.25;;;2.08;;
24381;SDS011;12502;50.678;7.172;2022-07-30T18:07:24;3.30;;;2.00;;
24381;SDS011;12502;50.678;7.172;2022-07-30T18:12:25;4.88;;;2.20;;
24381;SDS011;12502;50.678;7.172;2022-07-30T18:17:28;3.90;;;2.08;;
24381;SDS011;12502;50.678;7.172;2022-07-30T18:22:30;3.92;;;2.08;;
24381;SDS011;12502;50.678;7.172;2022-07-30T18:27:32;4.18;;;2.78;;
24381;SDS011;12502;50.678;7.172;2022-07-30T18:32:34;4.38;;;2.13;;
24381;SDS011;12502;50.678;7.172;2022-07-30T18:37:36;4.75;;;1.67;;
24381;SDS011;12502;50.678;7.172;2022-07-30T18:42:41;3.42;;;1.90;;
24381;SDS011;12502;50.678;7.172;2022-07-30T18:47:43;3.83;;;2.08;;
24381;SDS011;12502;50.678;7.172;2022-07-30T18:52:46;3.92;;;2.20;;
24381;SDS011;12502;50.678;7.172;2022-07-30T18:57:48;5.18;;;2.13;;
24381;SDS011;12502;50.678;7.172;2022-07-30T19:02:52;2.22;;;1.95;;
24381;SDS011;12502;50.678;7.172;2022-07-30T19:07:54;4.07;;;2.00;;
24381;SDS011;12502;50.678;7.172;2022-07-30T19:12:59;4.47;;;2.25;;
24381;SDS011;12502;50.678;7.172;2022-07-30T19:18:01;3.45;;;2.10;;
24381;SDS011;12502;50.678;7.172;2022-07-30T19:23:03;3.55;;;2.17;;
24381;SDS011;12502;50.678;7.172;2022-07-30T19:28:07;4.40;;;2.28;;
24381;SDS011;12502;50.678;7.172;2022-07-30T19:33:11;3.85;;;2.17;;
24381;SDS011;12502;50.678;7.172;2022-07-30T19:38:16;3.97;;;2.22;;
24381;SDS011;12502;50.678;7.172;2022-07-30T19:43:24;4.55;;;2.33;;
24381;SDS011;12502;50.678;7.172;2022-07-30T19:48:28;5.65;;;2.35;;
24381;SDS011;12502;50.678;7.172;2022-07-30T19:53:32;4.07;;;2.42;;
24381;SDS011;12502;50.678;7.172;2022-07-30T19:58:34;4.03;;;2.40;;
24381;SDS011;12502;50.678;7.172;2022-07-30T20:03:37;4.57;;;2.30;;
24381;SDS011;12502;50.678;7.172;2022-07-30T20:08:39;4.40;;;2.60;;
24381;SDS011;12502;50.678;7.172;2022-07-30T20:13:45;4.85;;;2.67;;
24381;SDS011;12502;50.678;7.172;2022-07-30T20:18:47;6.05;;;3.00;;
24381;SDS011;12502;50.678;7.172;2022-07-30T20:23:52;5.35;;;2.70;;
24381;SDS011;12502;50.678;7.172;2022-07-30T20:28:54;3.50;;;2.95;;
24381;SDS011;12502;50.678;7.172;2022-07-30T20:33:59;5.38;;;3.10;;
24381;SDS011;12502;50.678;7.172;2022-07-30T20:39:01;4.43;;;2.75;;
24381;SDS011;12502;50.678;7.172;2022-07-30T20:44:05;4.47;;;2.80;;
24381;SDS011;12502;50.678;7.172;2022-07-30T20:49:08;5.10;;;3.17;;
24381;SDS011;12502;50.678;7.172;2022-07-30T20:54:12;6.88;;;3.38;;
24381;SDS011;12502;50.678;7.172;2022-07-30T20:59:15;5.55;;;3.53;;
24381;SDS011;12502;50.678;7.172;2022-07-30T21:04:17;5.68;;;3.50;;
24381;SDS011;12502;50.678;7.172;2022-07-30T21:09:25;3.95;;;2.85;;
24381;SDS011;12502;50.678;7.172;2022-07-30T21:14:49;4.47;;;3.47;;
24381;SDS011;12502;50.678;7.172;2022-07-30T21:19:52;5.13;;;3.10;;
24381;SDS011;12502;50.678;7.172;2022-07-30T21:24:55;6.43;;;3.15;;
24381;SDS011;12502;50.678;7.172;2022-07-30T21:29:56;7.05;;;3.63;;
24381;SDS011;12502;50.678;7.172;2022-07-30T21:35:00;4.05;;;2.88;;
24381;SDS011;12502;50.678;7.172;2022-07-30T21:40:08;6.90;;;3.17;;
24381;SDS011;12502;50.678;7.172;2022-07-30T21:45:10;4.93;;;2.75;;
24381;SDS011;12502;50.678;7.172;2022-07-30T21:50:12;6.07;;;2.83;;
24381;SDS011;12502;50.678;7.172;2022-07-30T21:55:16;2.83;;;2.37;;
24381;SDS011;12502;50.678;7.172;2022-07-30T22:00:26;5.03;;;2.70;;
24381;SDS011;12502;50.678;7.172;2022-07-30T22:05:48;3.67;;;2.83;;
24381;SDS011;12502;50.678;7.172;2022-07-30T22:10:52;5.22;;;2.80;;
24381;SDS011;12502;50.678;7.172;2022-07-30T22:15:55;3.58;;;2.97;;
24381;SDS011;12502;50.678;7.172;2022-07-30T22:20:57;5.03;;;3.30;;
24381;SDS011;12502;50.678;7.172;2022-07-30T22:26:00;4.15;;;2.80;;
24381;SDS011;12502;50.678;7.172;2022-07-30T22:31:02;4.30;;;2.70;;
24381;SDS011;12502;50.678;7.172;2022-07-30T22:36:06;4.65;;;2.90;;
24381;SDS011;12502;50.678;7.172;2022-07-30T22:41:11;5.63;;;3.05;;
24381;SDS011;12502;50.678;7.172;2022-07-30T22:46:14;5.30;;;3.38;;
24381;SDS011;12502;50.678;7.172;2022-07-30T22:51:31;4.93;;;3.17;;
24381;SDS011;12502;50.678;7.172;2022-07-30T22:56:53;3.88;;;3.22;;
24381;SDS011;12502;50.678;7.172;2022-07-30T23:01:55;4.75;;;3.20;;
24381;SDS011;12502;50.678;7.172;2022-07-30T23:06:57;4.15;;;3.03;;
24381;SDS011;12502;50.678;7.172;2022-07-30T23:11:59;3.88;;;2.95;;
24381;SDS011;12502;50.678;7.172;2022-07-30T23:17:01;4.97;;;3.10;;
24381;SDS011;12502;50.678;7.172;2022-07-30T23:22:03;5.47;;;2.95;;
24381;SDS011;12502;50.678;7.172;2022-07-30T23:27:07;4.60;;;3.10;;
24381;SDS011;12502;50.678;7.172;2022-07-30T23:32:09;4.50;;;2.70;;
24381;SDS011;12502;50.678;7.172;2022-07-30T23:37:10;3.33;;;2.95;;
24381;SDS011;12502;50.678;7.172;2022-07-30T23:42:15;4.95;;;3.30;;
24381;SDS011;12502;50.678;7.172;2022-07-30T23:47:17;5.25;;;3.25;;
24381;SDS011;12502;50.678;7.172;2022-07-30T23:52:38;4.22;;;2.90;;
24381;SDS011;12502;50.678;7.172;2022-07-30T23:57:42;3.53;;;2.63;;
